createdAt,value
2019-02-06T00:00:12.446Z,84.30
2019-02-06T00:01:12.436Z,84.72
2019-02-06T00:02:12.444Z,84.52
2019-02-06T00:03:12.414Z,84.58
2019-02-06T00:04:15.316Z,84.94
2019-02-06T00:05:14.356Z,84.58
2019-02-06T00:06:12.382Z,84.72
2019-02-06T00:07:12.372Z,85.11
2019-02-06T00:08:12.394Z,84.47
2019-02-06T00:09:12.349Z,84.47
2019-02-06T00:10:12.343Z,84.47
2019-02-06T00:11:12.330Z,85.00
2019-02-06T00:12:12.324Z,84.79
2019-02-06T00:13:12.326Z,84.58
2019-02-06T00:14:12.327Z,84.69
2019-02-06T00:15:12.311Z,84.47
2019-02-06T00:16:12.293Z,84.47
2019-02-06T00:17:12.267Z,84.58
2019-02-06T00:18:12.268Z,84.69
2019-02-06T00:19:12.281Z,84.69
2019-02-06T00:20:12.254Z,84.37
2019-02-06T00:21:12.225Z,84.89
2019-02-06T00:22:12.219Z,84.58
2019-02-06T00:23:12.212Z,84.89
2019-02-06T00:24:12.196Z,84.37
2019-02-06T00:25:12.195Z,84.58
2019-02-06T00:26:12.189Z,84.27
2019-02-06T00:27:12.174Z,84.27
2019-02-06T00:28:12.151Z,84.69
2019-02-06T00:29:12.149Z,84.69
2019-02-06T00:30:12.130Z,84.58
2019-02-06T00:31:12.132Z,84.96
2019-02-06T00:32:12.135Z,84.89
2019-02-06T00:33:12.113Z,84.58
2019-02-06T00:34:12.092Z,84.79
2019-02-06T00:35:12.079Z,84.27
2019-02-06T00:36:12.072Z,84.79
2019-02-06T00:37:12.063Z,84.37
2019-02-06T00:38:12.072Z,84.89
2019-02-06T00:39:12.041Z,84.89
2019-02-06T00:40:12.032Z,84.47
2019-02-06T00:41:12.018Z,84.47
2019-02-06T00:42:12.015Z,83.73
2019-02-06T00:43:11.999Z,84.16
2019-02-06T00:44:12.010Z,84.05
2019-02-06T00:45:11.980Z,83.95
2019-02-06T00:46:11.970Z,84.09
2019-02-06T00:47:11.964Z,84.62
2019-02-06T00:48:11.948Z,84.20
2019-02-06T00:49:11.938Z,85.04
2019-02-06T00:50:11.947Z,84.62
2019-02-06T00:51:11.919Z,84.72
2019-02-06T00:52:11.907Z,84.52
2019-02-06T00:53:11.897Z,84.41
2019-02-06T00:54:11.888Z,84.97
2019-02-06T00:55:11.875Z,85.46
2019-02-06T00:56:11.888Z,84.62
2019-02-06T00:57:11.859Z,84.94
2019-02-06T00:58:11.849Z,84.30
2019-02-06T00:59:11.839Z,84.41
2019-02-06T01:00:11.827Z,84.45
2019-02-06T01:01:11.820Z,84.66
2019-02-06T01:02:11.828Z,84.45
2019-02-06T01:03:11.795Z,85.29
2019-02-06T01:04:11.782Z,84.69
2019-02-06T01:05:11.776Z,84.76
2019-02-06T01:06:11.763Z,84.59
2019-02-06T01:07:11.760Z,84.59
2019-02-06T01:08:11.785Z,85.01
2019-02-06T01:09:11.734Z,85.01
2019-02-06T01:10:11.724Z,84.80
2019-02-06T01:11:11.718Z,84.91
2019-02-06T01:12:11.706Z,84.69
2019-02-06T01:13:11.690Z,84.80
2019-02-06T01:14:11.709Z,84.69
2019-02-06T01:15:11.674Z,85.01
2019-02-06T01:16:11.661Z,84.69
2019-02-06T01:17:11.657Z,85.33
2019-02-06T01:18:11.654Z,85.01
2019-02-06T01:19:11.632Z,84.69
2019-02-06T01:20:11.667Z,85.01
2019-02-06T01:21:11.609Z,84.80
2019-02-06T01:22:11.603Z,84.80
2019-02-06T01:23:11.592Z,84.59
2019-02-06T01:24:11.590Z,84.80
2019-02-06T01:25:11.574Z,84.69
2019-02-06T01:26:11.579Z,84.91
2019-02-06T01:27:11.557Z,84.91
2019-02-06T01:28:11.539Z,84.69
2019-02-06T01:29:11.533Z,84.74
2019-02-06T01:30:11.523Z,84.69
2019-02-06T01:31:11.513Z,84.74
2019-02-06T01:32:11.526Z,85.36
2019-02-06T01:33:11.491Z,85.05
2019-02-06T01:34:11.493Z,84.74
2019-02-06T01:35:11.472Z,84.84
2019-02-06T01:36:11.465Z,84.84
2019-02-06T01:37:11.460Z,85.05
2019-02-06T01:38:11.462Z,85.01
2019-02-06T01:39:11.427Z,84.74
2019-02-06T01:40:11.424Z,84.84
2019-02-06T01:41:11.410Z,84.84
2019-02-06T01:42:11.404Z,84.74
2019-02-06T01:43:11.389Z,84.67
2019-02-06T01:44:11.409Z,84.84
2019-02-06T01:45:11.373Z,84.84
2019-02-06T01:46:11.361Z,84.94
2019-02-06T01:47:11.353Z,84.84
2019-02-06T01:48:11.343Z,84.84
2019-02-06T01:49:11.334Z,85.09
2019-02-06T01:50:11.338Z,84.45
2019-02-06T01:51:11.311Z,84.98
2019-02-06T01:52:11.297Z,84.77
2019-02-06T01:53:11.290Z,84.77
2019-02-06T01:54:11.284Z,85.19
2019-02-06T01:55:11.271Z,85.09
2019-02-06T01:56:11.275Z,84.77
2019-02-06T01:57:11.246Z,84.77
2019-02-06T01:58:11.240Z,84.88
2019-02-06T01:59:11.228Z,85.09
2019-02-06T02:00:11.224Z,84.56
2019-02-06T02:01:11.217Z,85.19
2019-02-06T02:02:11.220Z,85.09
2019-02-06T02:03:11.190Z,85.09
2019-02-06T02:04:11.176Z,84.67
2019-02-06T02:05:11.169Z,84.98
2019-02-06T02:06:11.159Z,85.09
2019-02-06T02:07:11.149Z,85.09
2019-02-06T02:08:11.164Z,85.09
2019-02-06T02:09:11.127Z,84.88
2019-02-06T02:10:11.118Z,85.41
2019-02-06T02:11:11.109Z,85.93
2019-02-06T02:12:11.107Z,86.08
2019-02-06T02:13:11.110Z,85.30
2019-02-06T02:14:11.099Z,84.77
2019-02-06T02:15:11.068Z,84.77
2019-02-06T02:16:11.054Z,84.77
2019-02-06T02:17:11.047Z,84.70
2019-02-06T02:18:11.038Z,84.77
2019-02-06T02:19:11.029Z,84.49
2019-02-06T02:20:11.045Z,84.81
2019-02-06T02:21:11.013Z,84.60
2019-02-06T02:22:10.996Z,84.70
2019-02-06T02:23:10.983Z,85.02
2019-02-06T02:24:10.978Z,85.23
2019-02-06T02:25:10.965Z,84.60
2019-02-06T02:26:10.974Z,84.28
2019-02-06T02:27:10.945Z,84.45
2019-02-06T02:28:10.941Z,84.49
2019-02-06T02:29:10.924Z,84.56
2019-02-06T02:30:10.921Z,84.45
2019-02-06T02:31:10.903Z,84.77
2019-02-06T02:32:10.933Z,84.56
2019-02-06T02:33:10.888Z,84.60
2019-02-06T02:34:10.884Z,84.60
2019-02-06T02:35:10.871Z,84.60
2019-02-06T02:36:16.069Z,84.77
2019-02-06T02:37:11.862Z,84.28
2019-02-06T02:38:10.834Z,83.97
2019-02-06T02:39:10.826Z,84.17
2019-02-06T02:40:10.819Z,84.53
2019-02-06T02:41:10.808Z,84.95
2019-02-06T02:42:10.797Z,84.64
2019-02-06T02:43:10.800Z,84.53
2019-02-06T02:44:10.774Z,84.74
2019-02-06T02:45:10.765Z,84.70
2019-02-06T02:46:10.749Z,84.70
2019-02-06T02:47:10.746Z,84.70
2019-02-06T02:48:10.803Z,84.81
2019-02-06T02:49:10.736Z,84.53
2019-02-06T02:50:10.710Z,84.39
2019-02-06T02:51:10.699Z,84.28
2019-02-06T02:52:10.693Z,84.81
2019-02-06T02:53:10.680Z,84.28
2019-02-06T02:54:10.709Z,84.49
2019-02-06T02:55:10.680Z,84.11
2019-02-06T02:56:10.651Z,84.32
2019-02-06T02:57:10.635Z,84.64
2019-02-06T02:58:10.626Z,84.84
2019-02-06T02:59:10.619Z,84.84
2019-02-06T03:00:10.606Z,84.74
2019-02-06T03:01:10.617Z,84.95
2019-02-06T03:02:10.593Z,85.27
2019-02-06T03:03:10.579Z,84.64
2019-02-06T03:04:10.572Z,85.06
2019-02-06T03:05:10.581Z,84.64
2019-02-06T03:06:10.550Z,84.95
2019-02-06T03:07:10.574Z,84.70
2019-02-06T03:08:10.530Z,84.60
2019-02-06T03:09:10.520Z,84.95
2019-02-06T03:10:10.507Z,84.91
2019-02-06T03:11:10.494Z,84.28
2019-02-06T03:12:10.487Z,84.60
2019-02-06T03:13:10.583Z,84.07
2019-02-06T03:14:10.464Z,84.24
2019-02-06T03:15:10.593Z,84.07
2019-02-06T03:16:10.447Z,83.61
2019-02-06T03:17:10.443Z,83.82
2019-02-06T03:18:10.423Z,84.49
2019-02-06T03:19:10.429Z,84.07
2019-02-06T03:20:10.403Z,84.28
2019-02-06T03:21:10.394Z,84.17
2019-02-06T03:22:10.384Z,83.97
2019-02-06T03:23:10.371Z,83.75
2019-02-06T03:24:10.369Z,84.07
2019-02-06T03:25:10.371Z,84.07
2019-02-06T03:26:10.344Z,83.54
2019-02-06T03:27:10.335Z,83.75
2019-02-06T03:28:10.321Z,83.86
2019-02-06T03:29:10.315Z,84.39
2019-02-06T03:30:10.305Z,84.07
2019-02-06T03:31:10.312Z,84.39
2019-02-06T03:32:10.280Z,84.28
2019-02-06T03:33:10.269Z,84.49
2019-02-06T03:34:10.255Z,84.17
2019-02-06T03:35:10.249Z,84.07
2019-02-06T03:36:10.244Z,84.17
2019-02-06T03:37:10.243Z,84.28
2019-02-06T03:38:10.220Z,83.97
2019-02-06T03:39:10.214Z,83.86
2019-02-06T03:40:10.297Z,84.49
2019-02-06T03:41:10.188Z,84.39
2019-02-06T03:42:10.192Z,84.17
2019-02-06T03:43:10.204Z,84.24
2019-02-06T03:44:10.165Z,84.17
2019-02-06T03:45:10.262Z,84.03
2019-02-06T03:46:10.141Z,83.61
2019-02-06T03:47:10.169Z,82.76
2019-02-06T03:48:10.118Z,83.29
2019-02-06T03:49:10.121Z,83.18
2019-02-06T03:50:10.101Z,82.87
2019-02-06T03:51:10.091Z,82.87
2019-02-06T03:52:10.072Z,83.29
2019-02-06T03:53:10.066Z,83.29
2019-02-06T03:54:10.058Z,83.08
2019-02-06T03:55:10.060Z,83.08
2019-02-06T03:56:10.034Z,82.87
2019-02-06T03:57:10.028Z,83.29
2019-02-06T03:58:10.016Z,83.29
2019-02-06T03:59:10.003Z,83.18
2019-02-06T04:00:09.995Z,83.08
2019-02-06T04:01:11.471Z,83.72
2019-02-06T04:02:09.976Z,83.65
2019-02-06T04:03:09.963Z,83.72
2019-02-06T04:04:09.955Z,83.75
2019-02-06T04:05:09.944Z,83.75
2019-02-06T04:06:09.942Z,83.54
2019-02-06T04:07:09.939Z,83.75
2019-02-06T04:08:09.919Z,84.07
2019-02-06T04:09:09.907Z,83.65
2019-02-06T04:10:09.890Z,84.07
2019-02-06T04:11:09.887Z,84.42
2019-02-06T04:12:09.876Z,84.11
2019-02-06T04:13:09.880Z,84.11
2019-02-06T04:14:09.853Z,84.11
2019-02-06T04:15:09.850Z,83.90
2019-02-06T04:16:09.925Z,84.49
2019-02-06T04:17:09.827Z,84.39
2019-02-06T04:18:09.814Z,84.39
2019-02-06T04:19:09.829Z,84.07
2019-02-06T04:20:09.787Z,83.86
2019-02-06T04:21:09.785Z,83.65
2019-02-06T04:22:09.774Z,83.79
2019-02-06T04:23:09.762Z,83.90
2019-02-06T04:24:09.752Z,84.11
2019-02-06T04:25:09.761Z,84.22
2019-02-06T04:26:09.737Z,84.42
2019-02-06T04:27:09.721Z,84.22
2019-02-06T04:28:09.713Z,84.42
2019-02-06T04:29:09.695Z,84.22
2019-02-06T04:30:09.693Z,84.22
2019-02-06T04:31:09.692Z,84.53
2019-02-06T04:32:09.672Z,84.11
2019-02-06T04:33:09.656Z,83.69
2019-02-06T04:34:09.648Z,84.32
2019-02-06T04:35:09.638Z,85.06
2019-02-06T04:36:09.628Z,84.78
2019-02-06T04:37:09.633Z,84.74
2019-02-06T04:38:09.606Z,85.16
2019-02-06T04:39:09.600Z,84.84
2019-02-06T04:40:09.592Z,84.84
2019-02-06T04:41:09.574Z,85.06
2019-02-06T04:42:09.567Z,84.74
2019-02-06T04:43:09.664Z,84.39
2019-02-06T04:44:09.542Z,84.53
2019-02-06T04:45:09.544Z,84.70
2019-02-06T04:46:09.526Z,84.60
2019-02-06T04:47:09.525Z,84.49
2019-02-06T04:48:09.501Z,84.74
2019-02-06T04:49:09.514Z,84.84
2019-02-06T04:50:09.487Z,84.64
2019-02-06T04:51:09.477Z,84.74
2019-02-06T04:52:09.467Z,84.74
2019-02-06T04:53:09.450Z,84.64
2019-02-06T04:54:09.445Z,84.64
2019-02-06T04:55:09.476Z,84.95
2019-02-06T04:56:09.423Z,84.64
2019-02-06T04:57:09.613Z,84.84
2019-02-06T04:58:09.405Z,84.64
2019-02-06T04:59:09.396Z,84.64
2019-02-06T05:00:09.380Z,84.64
2019-02-06T05:01:09.386Z,84.53
2019-02-06T05:02:09.360Z,85.16
2019-02-06T05:03:09.352Z,85.06
2019-02-06T05:04:09.341Z,85.21
2019-02-06T05:05:09.334Z,85.38
2019-02-06T05:06:09.322Z,85.27
2019-02-06T05:07:18.719Z,84.74
2019-02-06T05:08:10.300Z,85.31
2019-02-06T05:09:09.294Z,85.21
2019-02-06T05:10:09.280Z,84.99
2019-02-06T05:11:09.266Z,84.89
2019-02-06T05:12:09.709Z,85.21
2019-02-06T05:13:09.356Z,84.84
2019-02-06T05:14:09.236Z,84.89
2019-02-06T05:15:09.227Z,85.41
2019-02-06T05:16:16.313Z,85.10
2019-02-06T05:17:09.206Z,85.21
2019-02-06T05:18:09.206Z,85.10
2019-02-06T05:19:09.209Z,84.99
2019-02-06T05:20:09.180Z,84.99
2019-02-06T05:21:09.182Z,85.10
2019-02-06T05:22:09.159Z,84.99
2019-02-06T05:23:09.147Z,84.89
2019-02-06T05:24:09.141Z,85.10
2019-02-06T05:25:09.146Z,85.21
2019-02-06T05:26:09.152Z,84.89
2019-02-06T05:27:09.103Z,84.84
2019-02-06T05:28:09.104Z,84.95
2019-02-06T05:29:09.092Z,85.16
2019-02-06T05:30:09.081Z,84.84
2019-02-06T05:31:09.107Z,84.74
2019-02-06T05:32:09.056Z,85.16
2019-02-06T05:33:09.044Z,84.84
2019-02-06T05:34:09.041Z,84.84
2019-02-06T05:35:09.028Z,84.74
2019-02-06T05:36:09.016Z,84.84
2019-02-06T05:37:09.024Z,84.84
2019-02-06T05:38:08.996Z,85.16
2019-02-06T05:39:08.993Z,85.69
2019-02-06T05:40:08.977Z,85.02
2019-02-06T05:41:08.970Z,84.81
2019-02-06T05:42:08.963Z,84.64
2019-02-06T05:43:09.045Z,84.74
2019-02-06T05:44:08.939Z,85.02
2019-02-06T05:45:08.922Z,84.74
2019-02-06T05:46:08.918Z,85.16
2019-02-06T05:47:08.899Z,84.91
2019-02-06T05:48:08.896Z,85.02
2019-02-06T05:49:08.911Z,84.60
2019-02-06T05:50:08.869Z,84.74
2019-02-06T05:51:08.885Z,85.16
2019-02-06T05:52:08.852Z,84.81
2019-02-06T05:53:08.853Z,84.84
2019-02-06T05:54:08.854Z,85.06
2019-02-06T05:55:08.837Z,84.81
2019-02-06T05:56:08.808Z,84.81
2019-02-06T05:57:08.810Z,84.91
2019-02-06T05:58:08.805Z,84.91
2019-02-06T05:59:08.783Z,85.02
2019-02-06T06:00:08.776Z,85.02
2019-02-06T06:01:08.786Z,84.81
2019-02-06T06:02:08.750Z,85.23
2019-02-06T06:03:08.750Z,84.91
2019-02-06T06:04:08.731Z,84.60
2019-02-06T06:05:08.741Z,84.49
2019-02-06T06:06:11.849Z,85.02
2019-02-06T06:07:08.712Z,84.91
2019-02-06T06:08:08.696Z,84.49
2019-02-06T06:09:08.678Z,85.13
2019-02-06T06:10:08.685Z,85.16
2019-02-06T06:11:08.659Z,84.60
2019-02-06T06:12:08.654Z,84.28
2019-02-06T06:13:08.659Z,84.39
2019-02-06T06:14:08.633Z,84.60
2019-02-06T06:15:08.620Z,84.60
2019-02-06T06:16:08.613Z,84.60
2019-02-06T06:17:08.597Z,84.74
2019-02-06T06:18:08.582Z,84.64
2019-02-06T06:19:08.589Z,84.64
2019-02-06T06:20:08.566Z,84.74
2019-02-06T06:21:08.556Z,84.64
2019-02-06T06:22:08.542Z,84.64
2019-02-06T06:23:08.543Z,84.64
2019-02-06T06:24:09.161Z,84.84
2019-02-06T06:25:08.535Z,84.22
2019-02-06T06:26:08.511Z,84.11
2019-02-06T06:27:08.498Z,84.28
2019-02-06T06:28:08.490Z,84.42
2019-02-06T06:29:08.476Z,84.53
2019-02-06T06:30:08.475Z,84.42
2019-02-06T06:31:08.480Z,84.17
2019-02-06T06:32:08.444Z,84.11
2019-02-06T06:33:08.430Z,84.11
2019-02-06T06:34:08.434Z,83.79
2019-02-06T06:35:08.420Z,83.69
2019-02-06T06:36:08.405Z,83.79
2019-02-06T06:37:08.405Z,83.69
2019-02-06T06:38:08.381Z,84.11
2019-02-06T06:39:08.375Z,84.14
2019-02-06T06:40:08.379Z,84.36
2019-02-06T06:41:08.353Z,84.46
2019-02-06T06:42:08.341Z,84.14
2019-02-06T06:43:08.346Z,84.46
2019-02-06T06:44:08.321Z,84.36
2019-02-06T06:45:08.315Z,84.57
2019-02-06T06:46:08.311Z,85.10
2019-02-06T06:47:08.291Z,84.57
2019-02-06T06:48:08.280Z,84.46
2019-02-06T06:49:08.305Z,84.67
2019-02-06T06:50:08.259Z,84.67
2019-02-06T06:51:08.251Z,84.46
2019-02-06T06:52:08.239Z,84.57
2019-02-06T06:53:08.230Z,84.04
2019-02-06T06:54:08.218Z,84.14
2019-02-06T06:55:08.221Z,84.36
2019-02-06T06:56:08.201Z,84.14
2019-02-06T06:57:08.194Z,84.29
2019-02-06T06:58:08.200Z,84.57
2019-02-06T06:59:08.166Z,84.14
2019-02-06T07:00:08.169Z,84.67
2019-02-06T07:01:10.845Z,84.46
2019-02-06T07:02:08.136Z,84.25
2019-02-06T07:03:08.128Z,84.14
2019-02-06T07:04:08.116Z,84.14
2019-02-06T07:05:08.109Z,83.90
2019-02-06T07:06:08.102Z,83.90
2019-02-06T07:07:08.127Z,83.62
2019-02-06T07:08:11.282Z,83.62
2019-02-06T07:09:09.081Z,82.63
2019-02-06T07:10:08.060Z,83.37
2019-02-06T07:11:08.055Z,83.40
2019-02-06T07:12:08.043Z,82.95
2019-02-06T07:13:08.046Z,83.20
2019-02-06T07:14:08.014Z,83.40
2019-02-06T07:15:08.010Z,83.40
2019-02-06T07:16:08.007Z,83.34
2019-02-06T07:17:07.988Z,83.40
2019-02-06T07:18:07.976Z,83.83
2019-02-06T07:19:07.989Z,82.77
2019-02-06T07:20:07.953Z,83.09
2019-02-06T07:21:07.943Z,82.88
2019-02-06T07:22:07.936Z,83.09
2019-02-06T07:23:07.930Z,83.09
2019-02-06T07:24:07.918Z,83.09
2019-02-06T07:25:07.921Z,83.09
2019-02-06T07:26:07.898Z,82.77
2019-02-06T07:27:07.891Z,82.14
2019-02-06T07:28:07.878Z,82.35
2019-02-06T07:29:07.862Z,82.10
2019-02-06T07:30:07.863Z,80.87
2019-02-06T07:31:07.859Z,79.10
2019-02-06T07:32:07.833Z,76.92
2019-02-06T07:33:07.826Z,75.07
2019-02-06T07:34:07.815Z,74.08
2019-02-06T07:35:07.805Z,73.46
2019-02-06T07:36:07.792Z,72.02
2019-02-06T07:37:07.805Z,72.02
2019-02-06T07:38:07.779Z,71.50
2019-02-06T07:39:07.760Z,69.99
2019-02-06T07:40:07.760Z,70.20
2019-02-06T07:41:07.744Z,69.89
2019-02-06T07:42:07.731Z,70.09
2019-02-06T07:43:07.737Z,69.64
2019-02-06T07:44:07.708Z,69.54
2019-02-06T07:45:07.702Z,69.54
2019-02-06T07:46:07.689Z,69.43
2019-02-06T07:47:07.683Z,68.25
2019-02-06T07:48:07.674Z,67.55
2019-02-06T07:49:07.699Z,66.06
2019-02-06T07:50:07.647Z,66.16
2019-02-06T07:51:07.635Z,64.87
2019-02-06T07:52:07.635Z,64.06
2019-02-06T07:53:07.618Z,64.25
2019-02-06T07:54:07.619Z,63.90
2019-02-06T07:55:07.619Z,63.69
2019-02-06T07:56:07.589Z,63.14
2019-02-06T07:57:07.577Z,61.54
2019-02-06T07:58:07.567Z,61.93
2019-02-06T07:59:07.561Z,61.04
2019-02-06T08:00:07.548Z,59.68
2019-02-06T08:01:07.566Z,59.60
2019-02-06T08:02:07.542Z,59.81
2019-02-06T08:03:07.513Z,59.68
2019-02-06T08:04:07.507Z,60.25
2019-02-06T08:05:07.493Z,58.24
2019-02-06T08:06:07.487Z,57.51
2019-02-06T08:07:07.520Z,57.30
2019-02-06T08:08:07.477Z,57.15
2019-02-06T08:09:07.452Z,55.92
2019-02-06T08:10:07.449Z,57.93
2019-02-06T08:11:07.432Z,58.42
2019-02-06T08:12:07.420Z,60.08
2019-02-06T08:13:07.426Z,63.62
2019-02-06T08:14:07.403Z,65.56
2019-02-06T08:15:07.391Z,66.61
2019-02-06T08:16:07.560Z,66.37
2019-02-06T08:17:07.376Z,66.40
2019-02-06T08:18:07.362Z,67.72
2019-02-06T08:19:07.365Z,68.98
2019-02-06T08:20:07.340Z,69.58
2019-02-06T08:21:07.330Z,69.19
2019-02-06T08:22:07.320Z,68.74
2019-02-06T08:23:07.307Z,66.89
2019-02-06T08:24:07.299Z,66.47
2019-02-06T08:25:07.307Z,66.64
2019-02-06T08:26:07.284Z,69.16
2019-02-06T08:27:07.264Z,69.37
2019-02-06T08:28:07.251Z,69.37
2019-02-06T08:29:07.245Z,68.50
2019-02-06T08:30:07.246Z,67.78
2019-02-06T08:31:07.239Z,66.52
2019-02-06T08:32:07.220Z,66.16
2019-02-06T08:33:07.209Z,67.77
2019-02-06T08:34:07.191Z,69.26
2019-02-06T08:35:07.187Z,69.23
2019-02-06T08:36:07.172Z,69.76
2019-02-06T08:37:07.185Z,69.55
2019-02-06T08:38:07.163Z,69.45
2019-02-06T08:39:07.143Z,69.34
2019-02-06T08:40:07.136Z,70.18
2019-02-06T08:41:07.125Z,69.97
2019-02-06T08:42:07.114Z,69.48
2019-02-06T08:43:07.120Z,70.07
2019-02-06T08:44:07.091Z,69.65
2019-02-06T08:45:07.086Z,69.10
2019-02-06T08:46:07.070Z,70.04
2019-02-06T08:47:07.061Z,69.27
2019-02-06T08:48:07.072Z,68.72
2019-02-06T08:49:07.054Z,67.67
2019-02-06T08:50:07.035Z,67.37
2019-02-06T08:51:07.025Z,64.25
2019-02-06T08:52:07.032Z,61.32
2019-02-06T08:53:06.996Z,58.03
2019-02-06T08:54:06.990Z,57.67
2019-02-06T08:55:06.991Z,56.08
2019-02-06T08:56:06.971Z,56.05
2019-02-06T08:57:06.958Z,55.69
2019-02-06T08:58:06.952Z,54.42
2019-02-06T08:59:06.939Z,53.72
2019-02-06T09:00:06.924Z,54.55
2019-02-06T09:01:06.954Z,54.75
2019-02-06T09:02:06.901Z,55.09
2019-02-06T09:03:06.891Z,55.56
2019-02-06T09:04:06.884Z,53.88
2019-02-06T09:05:07.650Z,53.56
2019-02-06T09:06:06.870Z,52.29
2019-02-06T09:07:06.865Z,52.06
2019-02-06T09:08:06.842Z,52.14
2019-02-06T09:09:06.827Z,50.98
2019-02-06T09:10:06.827Z,50.46
2019-02-06T09:11:06.819Z,51.86
2019-02-06T09:12:06.803Z,51.42
2019-02-06T09:13:06.804Z,50.85
2019-02-06T09:14:06.772Z,50.54
2019-02-06T09:15:06.766Z,51.50
2019-02-06T09:16:06.767Z,50.77
2019-02-06T09:17:06.747Z,51.50
2019-02-06T09:18:06.739Z,51.00
2019-02-06T09:19:06.737Z,50.82
2019-02-06T09:20:06.718Z,49.77
2019-02-06T09:21:06.714Z,49.38
2019-02-06T09:22:06.701Z,49.38
2019-02-06T09:23:06.687Z,49.71
2019-02-06T09:24:06.674Z,50.64
2019-02-06T09:25:06.682Z,51.31
2019-02-06T09:26:06.652Z,51.75
2019-02-06T09:27:06.635Z,52.14
2019-02-06T09:28:06.632Z,52.37
2019-02-06T09:29:06.622Z,52.25
2019-02-06T09:30:06.606Z,51.81
2019-02-06T09:31:06.616Z,51.60
2019-02-06T09:32:06.584Z,51.08
2019-02-06T09:33:06.578Z,50.46
2019-02-06T09:34:09.490Z,50.67
2019-02-06T09:35:06.559Z,51.06
2019-02-06T09:36:06.543Z,50.67
2019-02-06T09:37:06.555Z,49.40
2019-02-06T09:38:06.527Z,49.87
2019-02-06T09:39:11.680Z,49.29
2019-02-06T09:40:07.499Z,48.48
2019-02-06T09:41:06.493Z,48.02
2019-02-06T09:42:06.483Z,47.28
2019-02-06T09:43:06.489Z,46.10
2019-02-06T09:44:06.457Z,45.67
2019-02-06T09:45:06.451Z,44.64
2019-02-06T09:46:06.442Z,44.23
2019-02-06T09:47:06.428Z,44.31
2019-02-06T09:48:06.422Z,46.10
2019-02-06T09:49:06.429Z,45.73
2019-02-06T09:50:06.396Z,46.68
2019-02-06T09:51:06.390Z,46.68
2019-02-06T09:52:06.374Z,46.91
2019-02-06T09:53:06.364Z,47.71
2019-02-06T09:54:06.355Z,47.20
2019-02-06T09:55:06.369Z,47.07
2019-02-06T09:56:06.332Z,46.12
2019-02-06T09:57:06.326Z,46.35
2019-02-06T09:58:06.309Z,45.81
2019-02-06T09:59:06.302Z,44.10
2019-02-06T10:00:06.295Z,43.67
2019-02-06T10:01:06.291Z,44.53
2019-02-06T10:02:09.396Z,43.69
2019-02-06T10:03:06.254Z,43.83
2019-02-06T10:04:06.246Z,46.33
2019-02-06T10:05:06.246Z,45.38
2019-02-06T10:06:06.224Z,45.44
2019-02-06T10:07:06.230Z,43.63
2019-02-06T10:08:06.205Z,42.70
2019-02-06T10:09:06.192Z,42.91
2019-02-06T10:10:06.182Z,43.65
2019-02-06T10:11:06.173Z,43.65
2019-02-06T10:12:06.166Z,43.65
2019-02-06T10:13:06.173Z,43.12
2019-02-06T10:14:06.234Z,42.58
2019-02-06T10:15:06.131Z,41.43
2019-02-06T10:16:06.124Z,42.08
2019-02-06T10:17:06.112Z,42.58
2019-02-06T10:18:06.095Z,42.66
2019-02-06T10:19:06.111Z,41.96
2019-02-06T10:20:06.082Z,41.84
2019-02-06T10:21:06.069Z,42.27
2019-02-06T10:22:06.132Z,42.19
2019-02-06T10:23:06.050Z,42.70
2019-02-06T10:24:06.034Z,43.24
2019-02-06T10:25:06.122Z,43.75
2019-02-06T10:26:06.012Z,43.93
2019-02-06T10:27:05.999Z,41.51
2019-02-06T10:28:05.993Z,40.94
2019-02-06T10:29:05.983Z,39.81
2019-02-06T10:30:05.967Z,41.19
2019-02-06T10:31:05.973Z,40.77
2019-02-06T10:32:05.951Z,41.10
2019-02-06T10:33:05.939Z,41.70
2019-02-06T10:34:05.925Z,40.75
2019-02-06T10:35:05.914Z,40.86
2019-02-06T10:36:05.903Z,40.59
2019-02-06T10:37:05.909Z,41.08
2019-02-06T10:38:05.887Z,40.24
2019-02-06T10:39:05.873Z,40.03
2019-02-06T10:40:05.859Z,41.33
2019-02-06T10:41:05.853Z,41.94
2019-02-06T10:42:05.840Z,42.32
2019-02-06T10:43:05.848Z,40.81
2019-02-06T10:44:05.827Z,41.77
2019-02-06T10:45:05.812Z,43.36
2019-02-06T10:46:05.795Z,43.24
2019-02-06T10:47:05.787Z,43.90
2019-02-06T10:48:05.773Z,42.14
2019-02-06T10:49:05.789Z,41.20
2019-02-06T10:50:05.757Z,42.05
2019-02-06T10:51:05.747Z,42.25
2019-02-06T10:52:05.733Z,42.07
2019-02-06T10:53:05.722Z,42.70
2019-02-06T10:54:05.715Z,43.54
2019-02-06T10:55:05.716Z,44.06
2019-02-06T10:56:05.689Z,43.65
2019-02-06T10:57:05.679Z,44.41
2019-02-06T10:58:05.670Z,44.23
2019-02-06T10:59:05.657Z,44.32
2019-02-06T11:00:05.644Z,44.37
2019-02-06T11:01:05.650Z,46.02
2019-02-06T11:02:05.622Z,46.02
2019-02-06T11:03:05.615Z,45.36
2019-02-06T11:04:05.606Z,45.44
2019-02-06T11:05:05.590Z,46.12
2019-02-06T11:06:05.581Z,46.95
2019-02-06T11:07:08.132Z,46.72
2019-02-06T11:08:05.561Z,45.89
2019-02-06T11:09:05.555Z,45.34
2019-02-06T11:10:05.542Z,44.62
2019-02-06T11:11:05.529Z,44.18
2019-02-06T11:12:05.516Z,44.23
2019-02-06T11:13:05.544Z,46.62
2019-02-06T11:14:05.499Z,46.43
2019-02-06T11:15:05.493Z,46.66
2019-02-06T11:16:05.474Z,48.25
2019-02-06T11:17:12.512Z,49.52
2019-02-06T11:18:05.451Z,49.08
2019-02-06T11:19:05.455Z,48.83
2019-02-06T11:20:05.435Z,46.72
2019-02-06T11:21:05.419Z,46.12
2019-02-06T11:22:05.410Z,46.58
2019-02-06T11:23:05.399Z,44.57
2019-02-06T11:24:05.384Z,47.42
2019-02-06T11:25:05.394Z,46.58
2019-02-06T11:26:05.365Z,47.13
2019-02-06T11:27:05.355Z,46.72
2019-02-06T11:28:05.345Z,47.16
2019-02-06T11:29:05.334Z,46.70
2019-02-06T11:30:05.321Z,46.04
2019-02-06T11:31:05.334Z,44.80
2019-02-06T11:32:05.303Z,44.74
2019-02-06T11:33:05.291Z,46.19
2019-02-06T11:34:05.287Z,46.58
2019-02-06T11:35:05.272Z,46.08
2019-02-06T11:36:05.414Z,46.47
2019-02-06T11:37:05.273Z,46.20
2019-02-06T11:38:05.237Z,46.72
2019-02-06T11:39:05.230Z,46.64
2019-02-06T11:40:05.219Z,48.08
2019-02-06T11:41:05.207Z,48.19
2019-02-06T11:42:05.191Z,47.88
2019-02-06T11:43:05.198Z,48.39
2019-02-06T11:44:05.175Z,47.77
2019-02-06T11:45:05.173Z,47.13
2019-02-06T11:46:05.150Z,48.16
2019-02-06T11:47:05.137Z,48.39
2019-02-06T11:48:05.127Z,49.11
2019-02-06T11:49:05.143Z,49.40
2019-02-06T11:50:05.102Z,48.19
2019-02-06T11:51:05.095Z,48.16
2019-02-06T11:52:05.080Z,47.65
2019-02-06T11:53:05.076Z,46.19
2019-02-06T11:54:05.063Z,45.75
2019-02-06T11:55:05.069Z,45.98
2019-02-06T11:56:05.041Z,46.72
2019-02-06T11:57:05.028Z,47.77
2019-02-06T11:58:05.018Z,47.34
2019-02-06T11:59:05.009Z,46.72
2019-02-06T12:00:04.999Z,47.16
2019-02-06T12:01:05.002Z,48.93
2019-02-06T12:02:04.973Z,49.05
2019-02-06T12:03:04.964Z,48.75
2019-02-06T12:04:04.958Z,49.47
2019-02-06T12:05:04.941Z,50.55
2019-02-06T12:06:04.932Z,51.40
2019-02-06T12:07:04.938Z,51.11
2019-02-06T12:08:04.920Z,51.61
2019-02-06T12:09:04.901Z,51.37
2019-02-06T12:10:09.706Z,52.59
2019-02-06T12:11:05.878Z,51.51
2019-02-06T12:12:04.879Z,52.57
2019-02-06T12:13:04.885Z,52.23
2019-02-06T12:14:04.848Z,53.86
2019-02-06T12:15:04.841Z,52.31
2019-02-06T12:16:04.824Z,52.08
2019-02-06T12:17:04.815Z,53.27
2019-02-06T12:18:04.806Z,49.21
2019-02-06T12:19:04.809Z,47.92
2019-02-06T12:20:04.786Z,46.39
2019-02-06T12:21:04.772Z,48.38
2019-02-06T12:22:04.775Z,48.80
2019-02-06T12:23:04.766Z,49.33
2019-02-06T12:24:04.742Z,50.82
2019-02-06T12:25:04.754Z,52.08
2019-02-06T12:26:04.723Z,51.36
2019-02-06T12:27:04.713Z,51.78
2019-02-06T12:28:05.288Z,51.95
2019-02-06T12:29:04.698Z,48.63
2019-02-06T12:30:04.678Z,48.43
2019-02-06T12:31:04.687Z,48.30
2019-02-06T12:32:04.663Z,48.18
2019-02-06T12:33:04.645Z,47.74
2019-02-06T12:34:04.638Z,46.48
2019-02-06T12:35:04.630Z,47.82
2019-02-06T12:36:04.617Z,47.60
2019-02-06T12:37:04.627Z,48.09
2019-02-06T12:38:04.591Z,47.34
2019-02-06T12:39:04.587Z,47.94
2019-02-06T12:40:04.577Z,46.17
2019-02-06T12:41:04.567Z,45.21
2019-02-06T12:42:04.562Z,43.51
2019-02-06T12:43:04.559Z,44.29
2019-02-06T12:44:04.530Z,45.76
2019-02-06T12:45:04.518Z,47.89
2019-02-06T12:46:04.509Z,49.19
2019-02-06T12:47:04.498Z,50.04
2019-02-06T12:48:04.487Z,51.78
2019-02-06T12:49:04.621Z,50.23
2019-02-06T12:50:04.463Z,49.91
2019-02-06T12:51:04.453Z,50.84
2019-02-06T12:52:04.448Z,49.90